createdAt,value
2022-10-07T00:00:29.369Z,2.80
2022-10-07T00:02:55.933Z,2.90
2022-10-07T00:05:22.512Z,2.53
2022-10-07T00:07:49.048Z,2.93
2022-10-07T00:10:15.690Z,2.73
2022-10-07T00:12:42.409Z,2.80
2022-10-07T00:15:09.577Z,2.90
2022-10-07T00:17:36.788Z,3.07
2022-10-07T00:20:03.604Z,2.90
2022-10-07T00:22:31.175Z,2.63
2022-10-07T00:24:57.748Z,2.83
2022-10-07T00:27:24.366Z,2.50
2022-10-07T00:29:50.969Z,2.90
2022-10-07T00:32:17.521Z,2.87
2022-10-07T00:34:44.101Z,2.93
2022-10-07T00:37:10.606Z,2.80
2022-10-07T00:39:37.363Z,2.67
2022-10-07T00:42:03.957Z,2.83
2022-10-07T00:46:59.345Z,2.87
2022-10-07T00:49:27.395Z,2.70
2022-10-07T00:51:53.969Z,2.50
2022-10-07T00:54:20.939Z,2.57
2022-10-07T00:56:49.596Z,2.60
2022-10-07T00:59:16.934Z,2.50
2022-10-07T01:01:43.497Z,2.50
2022-10-07T01:04:11.400Z,2.43
2022-10-07T01:06:39.270Z,2.43
2022-10-07T01:09:07.703Z,2.50
2022-10-07T01:12:00.145Z,2.70
2022-10-07T01:14:35.912Z,2.80
2022-10-07T01:17:11.268Z,2.67
2022-10-07T01:20:16.884Z,2.70
2022-10-07T01:22:52.158Z,2.73
2022-10-07T01:25:39.103Z,2.50
2022-10-07T01:28:08.324Z,2.70
2022-10-07T01:30:37.542Z,3.00
2022-10-07T01:33:05.325Z,2.57
2022-10-07T01:35:35.162Z,2.80
2022-10-07T01:38:07.156Z,2.50
2022-10-07T01:40:37.383Z,3.00
2022-10-07T01:43:04.342Z,2.50
2022-10-07T01:45:31.194Z,2.57
2022-10-07T01:47:59.067Z,2.40
2022-10-07T01:50:28.016Z,2.70
2022-10-07T01:53:06.485Z,2.73
2022-10-07T01:55:45.404Z,2.60
2022-10-07T01:58:27.044Z,2.83
2022-10-07T02:01:27.169Z,2.53
2022-10-07T02:04:35.112Z,2.53
2022-10-07T02:07:15.001Z,2.30
2022-10-07T02:09:49.497Z,2.83
2022-10-07T02:12:40.237Z,2.70
2022-10-07T02:15:17.113Z,3.20
2022-10-07T02:17:48.926Z,2.77
2022-10-07T02:20:16.521Z,2.90
2022-10-07T02:22:44.714Z,2.60
2022-10-07T02:25:12.422Z,2.73
2022-10-07T02:27:39.400Z,3.27
2022-10-07T02:30:10.216Z,3.07
2022-10-07T02:32:40.869Z,2.40
2022-10-07T02:35:16.360Z,3.10
2022-10-07T02:37:44.010Z,2.97
2022-10-07T02:40:12.372Z,2.67
2022-10-07T02:42:59.077Z,3.20
2022-10-07T02:45:27.084Z,3.17
2022-10-07T02:48:04.268Z,2.90
2022-10-07T02:50:37.749Z,2.87
2022-10-07T02:53:05.347Z,3.37
2022-10-07T02:55:32.184Z,2.67
2022-10-07T02:58:01.026Z,3.13
2022-10-07T03:00:29.688Z,3.63
2022-10-07T03:02:58.563Z,2.90
2022-10-07T03:05:26.179Z,3.63
2022-10-07T03:07:56.132Z,3.07
2022-10-07T03:10:22.763Z,3.93
2022-10-07T03:12:50.252Z,3.10
2022-10-07T03:15:16.859Z,2.57
2022-10-07T03:17:43.639Z,3.70
2022-10-07T03:20:10.349Z,3.23
2022-10-07T03:22:36.856Z,3.80
2022-10-07T03:25:03.799Z,3.30
2022-10-07T03:27:30.267Z,3.83
2022-10-07T03:29:58.552Z,3.13
2022-10-07T03:32:27.250Z,3.50
2022-10-07T03:34:54.878Z,3.43
2022-10-07T03:37:22.520Z,3.73
2022-10-07T03:39:49.192Z,3.33
2022-10-07T03:42:16.258Z,3.53
2022-10-07T03:44:42.757Z,3.60
2022-10-07T03:47:10.932Z,3.43
2022-10-07T03:49:39.037Z,3.70
2022-10-07T03:52:06.319Z,4.33
2022-10-07T03:54:33.756Z,4.30
2022-10-07T03:57:00.884Z,3.83
2022-10-07T03:59:27.621Z,3.83
2022-10-07T04:01:54.293Z,4.13
2022-10-07T04:04:20.766Z,3.83
2022-10-07T04:06:47.205Z,3.73
2022-10-07T04:09:14.178Z,3.93
2022-10-07T04:11:41.732Z,4.10
2022-10-07T04:14:08.325Z,4.07
2022-10-07T04:16:37.999Z,4.30
2022-10-07T04:19:06.008Z,4.23
2022-10-07T04:21:32.572Z,4.30
2022-10-07T04:23:59.202Z,4.43
2022-10-07T04:26:25.682Z,3.50
2022-10-07T04:28:52.141Z,4.23
2022-10-07T04:31:18.684Z,4.07
2022-10-07T04:33:46.397Z,4.20
2022-10-07T04:36:12.953Z,4.17
2022-10-07T04:38:39.791Z,3.37
2022-10-07T04:41:07.462Z,3.57
2022-10-07T04:43:34.448Z,4.07
2022-10-07T04:46:06.409Z,3.77
2022-10-07T04:48:33.090Z,3.70
2022-10-07T04:51:04.192Z,4.00
2022-10-07T04:53:31.899Z,3.83
2022-10-07T04:55:59.298Z,3.43
2022-10-07T04:58:27.206Z,3.77
2022-10-07T05:00:54.722Z,3.87
2022-10-07T05:03:22.436Z,3.70
2022-10-07T05:05:54.790Z,3.47
2022-10-07T05:08:24.762Z,3.67
2022-10-07T05:10:56.099Z,3.40
2022-10-07T05:13:24.371Z,3.73
2022-10-07T05:15:53.083Z,3.60
2022-10-07T05:18:20.215Z,4.00
2022-10-07T05:20:48.303Z,3.40
2022-10-07T05:23:16.027Z,3.67
2022-10-07T05:25:43.939Z,4.17
2022-10-07T05:28:15.478Z,3.43
2022-10-07T05:30:42.233Z,3.73
2022-10-07T05:33:10.044Z,3.63
2022-10-07T05:35:36.521Z,3.30
2022-10-07T05:38:03.035Z,4.13
2022-10-07T05:40:29.485Z,3.40
2022-10-07T05:42:55.954Z,4.20
2022-10-07T05:45:22.508Z,3.60
2022-10-07T05:47:49.086Z,3.70
2022-10-07T05:50:15.812Z,3.47
2022-10-07T05:52:45.196Z,4.30
2022-10-07T05:55:12.064Z,3.83
2022-10-07T05:57:39.235Z,3.70
2022-10-07T06:00:07.208Z,3.60
2022-10-07T06:02:33.909Z,3.63
2022-10-07T06:05:01.181Z,3.60
2022-10-07T06:07:29.696Z,5.40
2022-10-07T06:10:14.912Z,3.90
2022-10-07T06:12:59.901Z,4.30
2022-10-07T06:15:26.436Z,3.67
2022-10-07T06:17:52.893Z,3.83
2022-10-07T06:20:19.366Z,3.43
2022-10-07T06:22:45.844Z,3.83
2022-10-07T06:25:12.296Z,4.57
2022-10-07T06:27:38.753Z,4.10
2022-10-07T06:30:05.805Z,4.53
2022-10-07T06:32:32.754Z,3.80
2022-10-07T06:34:59.220Z,4.00
2022-10-07T06:37:25.821Z,3.53
2022-10-07T06:39:55.250Z,4.27
2022-10-07T06:42:23.916Z,3.80
2022-10-07T06:44:53.745Z,3.43
2022-10-07T06:47:21.095Z,3.60
2022-10-07T06:49:47.644Z,3.40
2022-10-07T06:52:14.131Z,3.47
2022-10-07T06:54:40.591Z,3.17
2022-10-07T06:57:26.261Z,3.60
2022-10-07T06:59:55.037Z,3.10
2022-10-07T07:02:21.546Z,3.53
2022-10-07T07:04:48.102Z,4.00
2022-10-07T07:07:14.613Z,3.40
2022-10-07T07:09:41.070Z,3.40
2022-10-07T07:12:07.498Z,4.27
2022-10-07T07:14:35.785Z,3.70
2022-10-07T07:17:02.352Z,3.63
2022-10-07T07:19:28.932Z,3.53
2022-10-07T07:21:55.479Z,4.17
2022-10-07T07:24:21.964Z,3.97
2022-10-07T07:26:48.557Z,3.60
2022-10-07T07:29:16.494Z,3.57
2022-10-07T07:31:43.099Z,3.63
2022-10-07T07:34:11.937Z,4.00
2022-10-07T07:36:42.806Z,3.50
2022-10-07T07:39:11.400Z,3.97
2022-10-07T07:41:41.303Z,3.80
2022-10-07T07:44:11.189Z,3.30
2022-10-07T07:46:41.848Z,3.30
2022-10-07T07:49:10.509Z,3.50
2022-10-07T07:51:37.637Z,3.50
2022-10-07T07:54:04.586Z,4.00
2022-10-07T07:56:33.880Z,3.80
2022-10-07T07:59:01.230Z,3.53
2022-10-07T08:01:32.012Z,3.37
2022-10-07T08:03:59.557Z,3.53
2022-10-07T08:06:28.009Z,3.83
2022-10-07T08:08:57.393Z,3.67
2022-10-07T08:11:24.389Z,3.57
2022-10-07T08:13:51.632Z,3.27
2022-10-07T08:16:20.325Z,3.50
2022-10-07T08:18:48.740Z,3.97
2022-10-07T08:21:18.397Z,4.03
2022-10-07T08:23:45.027Z,3.33
2022-10-07T08:26:11.490Z,3.10
2022-10-07T08:28:39.150Z,4.10
2022-10-07T08:31:08.237Z,3.33
2022-10-07T08:33:36.872Z,3.80
2022-10-07T08:36:05.238Z,3.73
2022-10-07T08:38:33.057Z,4.13
2022-10-07T08:41:32.086Z,3.73
2022-10-07T08:44:01.098Z,4.17
2022-10-07T08:46:31.317Z,3.73
2022-10-07T08:49:04.722Z,4.30
2022-10-07T08:51:34.284Z,3.83
2022-10-07T08:54:00.713Z,4.67
2022-10-07T08:56:29.301Z,4.30
2022-10-07T08:59:16.533Z,3.90
2022-10-07T09:01:54.753Z,4.37
2022-10-07T09:04:42.537Z,3.73
2022-10-07T09:07:13.041Z,3.67
2022-10-07T09:09:44.267Z,3.57
2022-10-07T09:12:17.450Z,3.50
2022-10-07T09:14:47.026Z,4.47
2022-10-07T09:17:34.995Z,4.03
2022-10-07T09:20:19.001Z,4.77
2022-10-07T09:22:57.204Z,3.87
2022-10-07T09:25:25.716Z,3.93
2022-10-07T09:27:54.435Z,3.97
2022-10-07T09:30:22.885Z,3.93
2022-10-07T09:32:51.328Z,4.03
2022-10-07T09:35:23.736Z,4.00
2022-10-07T09:38:10.410Z,3.80
2022-10-07T09:41:02.461Z,3.73
2022-10-07T09:43:30.299Z,3.90
2022-10-07T09:45:57.463Z,3.57
2022-10-07T09:48:26.324Z,3.87
2022-10-07T09:51:11.980Z,3.50
2022-10-07T09:53:54.784Z,3.90
2022-10-07T09:56:35.198Z,4.47
2022-10-07T09:59:16.824Z,3.87
2022-10-07T10:01:50.365Z,3.70
2022-10-07T10:04:22.549Z,3.40
2022-10-07T10:06:50.401Z,3.87
2022-10-07T10:09:22.067Z,3.27
2022-10-07T10:12:12.681Z,3.97
2022-10-07T10:14:55.273Z,4.20
2022-10-07T10:17:21.683Z,3.77
2022-10-07T10:19:48.247Z,3.60
2022-10-07T10:22:30.041Z,4.07
2022-10-07T10:25:15.662Z,4.00
2022-10-07T10:27:59.960Z,3.90
2022-10-07T10:30:26.883Z,3.80
2022-10-07T10:33:04.575Z,3.87
2022-10-07T10:36:06.091Z,3.63
2022-10-07T10:38:51.285Z,3.63
2022-10-07T10:41:26.588Z,3.97
2022-10-07T10:43:59.081Z,3.50
2022-10-07T10:46:43.297Z,3.03
2022-10-07T10:49:20.862Z,3.73
2022-10-07T10:52:08.633Z,3.63
2022-10-07T10:54:52.645Z,2.93
2022-10-07T10:57:35.120Z,2.70
2022-10-07T11:00:08.320Z,3.33
2022-10-07T11:03:12.365Z,2.80
2022-10-07T11:05:40.404Z,3.23
2022-10-07T11:08:17.416Z,3.60
2022-10-07T11:10:51.732Z,3.57
2022-10-07T11:13:24.321Z,3.83
2022-10-07T11:15:57.081Z,3.03
2022-10-07T11:18:39.439Z,3.57
2022-10-07T11:21:10.678Z,3.30
2022-10-07T11:23:46.396Z,3.73
2022-10-07T11:26:24.091Z,3.60
2022-10-07T11:28:51.228Z,3.27
2022-10-07T11:31:37.793Z,3.40
2022-10-07T11:34:14.068Z,3.87
2022-10-07T11:36:52.808Z,3.93
2022-10-07T11:39:19.361Z,4.13
2022-10-07T11:42:09.443Z,3.70
2022-10-07T11:44:52.173Z,2.70
2022-10-07T11:47:25.941Z,3.00
2022-10-07T11:50:09.189Z,3.87
2022-10-07T11:52:41.272Z,3.60
2022-10-07T11:55:10.368Z,4.00
2022-10-07T11:57:38.788Z,3.13
2022-10-07T12:00:22.451Z,3.30
2022-10-07T12:02:49.615Z,3.70
2022-10-07T12:05:36.471Z,3.70
2022-10-07T12:08:43.449Z,3.53
2022-10-07T12:11:12.958Z,3.33
2022-10-07T12:13:40.709Z,3.13
2022-10-07T12:16:30.283Z,3.60
2022-10-07T12:19:10.466Z,3.67
2022-10-07T12:22:02.993Z,2.97
2022-10-07T12:24:31.744Z,3.60
2022-10-07T12:27:14.637Z,3.70
2022-10-07T12:29:49.155Z,3.23
2022-10-07T12:32:42.537Z,4.30
2022-10-07T12:35:36.967Z,3.73
2022-10-07T12:38:14.315Z,3.20
2022-10-07T12:40:43.263Z,3.00
2022-10-07T12:43:34.451Z,3.43
2022-10-07T12:46:05.231Z,3.50
2022-10-07T12:48:37.590Z,2.47
2022-10-07T12:51:05.914Z,3.40
2022-10-07T12:53:41.675Z,3.30
2022-10-07T12:56:09.040Z,3.70
2022-10-07T12:59:00.297Z,3.17
2022-10-07T13:01:48.445Z,2.80
2022-10-07T13:04:16.662Z,3.30
2022-10-07T13:06:55.323Z,3.07
2022-10-07T13:09:51.423Z,3.20
2022-10-07T13:12:46.932Z,3.00
2022-10-07T13:15:28.772Z,3.10
2022-10-07T13:18:31.078Z,3.37
2022-10-07T13:21:06.512Z,3.03
2022-10-07T13:23:34.123Z,3.17
2022-10-07T13:26:03.495Z,3.87
2022-10-07T13:28:47.771Z,2.93
2022-10-07T13:31:21.089Z,3.10
2022-10-07T13:33:48.699Z,3.10
2022-10-07T13:36:18.123Z,3.10
2022-10-07T13:38:46.361Z,2.57
2022-10-07T13:41:22.101Z,3.47
2022-10-07T13:43:54.174Z,2.77
2022-10-07T13:46:23.839Z,3.20
2022-10-07T13:48:50.945Z,3.27
2022-10-07T13:51:32.593Z,3.17
2022-10-07T13:54:01.063Z,2.77
2022-10-07T13:56:36.023Z,3.30
2022-10-07T13:59:02.801Z,2.97
2022-10-07T14:01:30.872Z,2.57
2022-10-07T14:04:19.986Z,3.00
2022-10-07T14:06:53.749Z,3.10
2022-10-07T14:09:47.959Z,2.73
2022-10-07T14:12:38.674Z,3.13
2022-10-07T14:15:13.768Z,3.07
2022-10-07T14:17:47.534Z,2.80
2022-10-07T14:20:43.824Z,3.00
2022-10-07T14:23:31.076Z,2.67
2022-10-07T14:26:04.203Z,2.93
2022-10-07T14:28:32.826Z,3.23
2022-10-07T14:31:28.437Z,3.30
2022-10-07T14:34:35.657Z,2.90
2022-10-07T14:37:09.142Z,3.13
2022-10-07T14:39:35.629Z,3.50
2022-10-07T14:42:03.484Z,3.27
2022-10-07T14:44:30.204Z,2.70
2022-10-07T14:47:24.801Z,3.30
2022-10-07T14:49:55.153Z,3.80
2022-10-07T14:52:43.528Z,3.57
2022-10-07T14:55:32.592Z,2.97
2022-10-07T14:57:59.034Z,2.70
2022-10-07T15:00:28.455Z,3.00
2022-10-07T15:02:56.878Z,3.33
2022-10-07T15:05:24.029Z,3.23
2022-10-07T15:07:51.211Z,3.33
2022-10-07T15:10:23.238Z,2.87
2022-10-07T15:12:50.156Z,2.70
2022-10-07T15:15:17.017Z,3.60
2022-10-07T15:17:44.384Z,3.77
2022-10-07T15:20:14.023Z,2.73
2022-10-07T15:22:40.890Z,3.00
2022-10-07T15:25:09.558Z,3.17
2022-10-07T15:27:36.502Z,3.57
2022-10-07T15:30:03.204Z,4.47
2022-10-07T15:32:30.219Z,4.87
2022-10-07T15:34:58.140Z,5.60
2022-10-07T15:37:27.465Z,3.67
2022-10-07T15:39:54.485Z,4.70
2022-10-07T15:42:23.804Z,3.80
2022-10-07T15:44:50.476Z,3.03
2022-10-07T15:47:17.122Z,3.57
2022-10-07T15:49:43.895Z,2.80
2022-10-07T15:52:12.137Z,2.90
2022-10-07T15:54:39.005Z,2.90
2022-10-07T15:57:05.745Z,2.90
2022-10-07T15:59:32.261Z,2.90
2022-10-07T16:01:58.802Z,3.03
2022-10-07T16:04:25.709Z,2.90
2022-10-07T16:06:52.297Z,3.03
2022-10-07T16:09:20.012Z,2.90
2022-10-07T16:11:47.221Z,3.73
2022-10-07T16:14:14.129Z,3.17
2022-10-07T16:16:41.247Z,3.60
2022-10-07T16:19:08.082Z,2.83
2022-10-07T16:21:36.870Z,3.20
2022-10-07T16:24:17.258Z,3.13
2022-10-07T16:26:44.627Z,3.10
2022-10-07T16:29:36.536Z,3.53
2022-10-07T16:32:03.918Z,3.73
2022-10-07T16:34:30.450Z,3.60
2022-10-07T16:36:57.938Z,2.97
2022-10-07T16:39:24.805Z,4.50
2022-10-07T16:41:52.382Z,3.77
2022-10-07T16:44:19.439Z,3.57
2022-10-07T16:46:46.186Z,3.17
2022-10-07T16:49:15.291Z,3.37
2022-10-07T16:51:41.971Z,3.17
2022-10-07T16:54:13.391Z,3.13
2022-10-07T16:56:41.617Z,3.90
2022-10-07T16:59:10.154Z,3.53
2022-10-07T17:01:39.277Z,3.80
2022-10-07T17:04:06.071Z,3.50
2022-10-07T17:06:33.216Z,3.80
2022-10-07T17:09:04.216Z,3.47
2022-10-07T17:11:33.328Z,3.47
2022-10-07T17:14:15.512Z,3.10
2022-10-07T17:16:47.449Z,3.57
2022-10-07T17:19:22.041Z,3.97
2022-10-07T17:21:49.164Z,4.47
2022-10-07T17:24:16.794Z,3.23
2022-10-07T17:26:44.697Z,2.90
2022-10-07T17:29:13.204Z,3.27
2022-10-07T17:31:43.628Z,2.80
2022-10-07T17:34:11.699Z,3.47
2022-10-07T17:36:39.883Z,3.30
2022-10-07T17:39:06.622Z,2.73
2022-10-07T17:41:35.077Z,3.33
2022-10-07T17:44:03.394Z,3.37
2022-10-07T17:46:32.688Z,2.90
2022-10-07T17:49:00.777Z,3.20
2022-10-07T17:51:28.973Z,2.90
2022-10-07T17:53:56.499Z,3.80
2022-10-07T17:56:23.251Z,2.83
2022-10-07T17:58:50.666Z,2.87
2022-10-07T18:01:23.976Z,3.17
2022-10-07T18:03:52.963Z,3.60
2022-10-07T18:06:20.298Z,3.37
2022-10-07T18:08:48.124Z,2.87
2022-10-07T18:11:15.842Z,3.47
2022-10-07T18:14:04.077Z,3.20
2022-10-07T18:16:34.816Z,3.30
2022-10-07T18:19:02.316Z,2.83
2022-10-07T18:21:32.163Z,3.37
2022-10-07T18:23:58.866Z,2.47
2022-10-07T18:26:25.535Z,2.80
2022-10-07T18:28:53.084Z,2.93
2022-10-07T18:31:20.555Z,3.30
2022-10-07T18:33:47.218Z,3.43
2022-10-07T18:36:16.500Z,3.20
2022-10-07T18:38:44.295Z,3.30
2022-10-07T18:41:13.685Z,3.00
2022-10-07T18:43:41.276Z,2.60
2022-10-07T18:46:10.957Z,3.00
2022-10-07T18:48:39.375Z,3.13
2022-10-07T18:51:06.935Z,2.90
2022-10-07T18:53:36.428Z,3.00
2022-10-07T18:56:05.149Z,3.30
2022-10-07T18:58:36.180Z,2.80
2022-10-07T19:01:10.461Z,3.20
2022-10-07T19:03:37.059Z,2.90
2022-10-07T19:06:10.988Z,3.23
2022-10-07T19:08:37.576Z,3.20
2022-10-07T19:11:06.017Z,2.87
2022-10-07T19:13:48.800Z,3.03
2022-10-07T19:16:36.261Z,2.90
2022-10-07T19:19:05.911Z,2.80
2022-10-07T19:21:32.866Z,2.70
2022-10-07T19:24:01.657Z,3.13
2022-10-07T19:26:36.601Z,3.00
2022-10-07T19:29:04.343Z,2.90
2022-10-07T19:31:35.072Z,3.00
2022-10-07T19:34:04.814Z,2.43
2022-10-07T19:36:34.047Z,3.00
2022-10-07T19:39:02.115Z,3.37
2022-10-07T19:41:30.250Z,3.00
2022-10-07T19:43:57.520Z,2.90
2022-10-07T19:46:26.346Z,2.47
2022-10-07T19:48:56.892Z,2.93
2022-10-07T19:51:24.205Z,2.50
2022-10-07T19:53:51.371Z,3.00
2022-10-07T19:56:20.537Z,2.87
2022-10-07T19:58:48.888Z,3.00
2022-10-07T20:01:18.563Z,3.20
2022-10-07T20:03:45.226Z,2.93
2022-10-07T20:06:13.062Z,2.70
2022-10-07T20:08:41.643Z,2.47
2022-10-07T20:11:09.110Z,3.00
2022-10-07T20:13:36.172Z,2.70
2022-10-07T20:16:10.792Z,2.80
2022-10-07T20:18:37.941Z,3.00
2022-10-07T20:21:11.138Z,3.27
2022-10-07T20:23:40.224Z,2.70
2022-10-07T20:26:08.637Z,2.60
2022-10-07T20:28:37.909Z,2.80
2022-10-07T20:31:06.011Z,3.03
2022-10-07T20:33:39.584Z,2.77
2022-10-07T20:36:06.875Z,2.63
2022-10-07T20:38:52.088Z,2.83
2022-10-07T20:41:37.182Z,2.87
2022-10-07T20:44:03.773Z,2.80
2022-10-07T20:46:30.250Z,2.60
2022-10-07T20:48:56.737Z,2.93
2022-10-07T20:51:23.265Z,2.63
2022-10-07T20:53:51.518Z,3.27
2022-10-07T20:56:18.501Z,2.53
2022-10-07T20:58:47.817Z,3.00
2022-10-07T21:01:14.571Z,2.80
2022-10-07T21:03:41.117Z,2.70
2022-10-07T21:06:07.907Z,3.17
2022-10-07T21:08:34.358Z,2.60
2022-10-07T21:11:04.821Z,2.83
2022-10-07T21:13:32.232Z,2.83
2022-10-07T21:16:02.493Z,3.00
2022-10-07T21:18:29.868Z,2.97
2022-10-07T21:20:57.115Z,3.10
2022-10-07T21:23:24.186Z,3.50
2022-10-07T21:25:51.842Z,2.77
2022-10-07T21:28:19.042Z,2.80
2022-10-07T21:30:55.033Z,2.97
2022-10-07T21:33:21.613Z,2.50
2022-10-07T21:35:48.055Z,2.83
2022-10-07T21:38:14.725Z,3.17
2022-10-07T21:40:41.162Z,2.90
2022-10-07T21:43:07.617Z,2.73
2022-10-07T21:45:34.137Z,2.80
2022-10-07T21:48:01.602Z,2.70
2022-10-07T21:50:28.038Z,2.87
2022-10-07T21:52:54.481Z,3.13
2022-10-07T21:55:20.916Z,2.57
2022-10-07T21:57:47.340Z,2.53
2022-10-07T22:00:15.945Z,2.83
2022-10-07T22:02:42.585Z,2.73
2022-10-07T22:05:11.401Z,3.23
2022-10-07T22:07:56.664Z,3.17
2022-10-07T22:10:23.089Z,2.90
2022-10-07T22:12:49.761Z,2.80
2022-10-07T22:15:17.056Z,3.13
2022-10-07T22:17:43.481Z,3.17
2022-10-07T22:20:10.040Z,2.93
2022-10-07T22:22:36.453Z,3.13
2022-10-07T22:25:03.113Z,3.00
2022-10-07T22:27:29.557Z,3.07
2022-10-07T22:29:55.997Z,3.43
2022-10-07T22:32:22.447Z,3.67
2022-10-07T22:35:07.623Z,2.93
2022-10-07T22:37:34.066Z,3.20
2022-10-07T22:40:00.539Z,3.37
2022-10-07T22:42:26.978Z,3.07
2022-10-07T22:44:53.458Z,3.37
2022-10-07T22:47:19.928Z,2.50
2022-10-07T22:49:46.439Z,3.50
2022-10-07T22:52:12.875Z,3.03
2022-10-07T22:54:40.378Z,3.13
2022-10-07T22:57:07.237Z,2.90
2022-10-07T22:59:34.353Z,2.90
2022-10-07T23:02:02.117Z,3.17
2022-10-07T23:04:28.586Z,3.17
2022-10-07T23:06:55.029Z,3.30
2022-10-07T23:09:21.533Z,3.03
2022-10-07T23:11:47.963Z,3.63
2022-10-07T23:14:14.845Z,3.70
2022-10-07T23:16:41.957Z,3.50
2022-10-07T23:19:09.214Z,3.20
2022-10-07T23:21:35.714Z,3.33
2022-10-07T23:24:07.322Z,3.50
2022-10-07T23:26:34.439Z,3.73
2022-10-07T23:29:01.054Z,4.00
2022-10-07T23:31:28.882Z,3.23
2022-10-07T23:33:56.507Z,3.00
2022-10-07T23:36:23.945Z,3.30
2022-10-07T23:38:51.146Z,3.50
2022-10-07T23:41:20.190Z,3.27
2022-10-07T23:43:54.605Z,4.00
2022-10-07T23:46:22.700Z,3.10
2022-10-07T23:48:49.684Z,3.67
2022-10-07T23:51:19.273Z,3.73
2022-10-07T23:53:46.229Z,3.43
2022-10-07T23:56:13.036Z,3.00
2022-10-07T23:58:39.717Z,3.53
